sensor_id;sensor_type;location;lat;lon;timestamp;pressure;altitude;pressure_sealevel;temperature;humidity
54308;BME280;40208;39.778;2.710;2023-04-28T00:00:01;101489.47;;;16.71;100.00
54308;BME280;40208;39.778;2.710;2023-04-28T00:02:49;101428.72;;;16.56;100.00
54308;BME280;40208;39.778;2.710;2023-04-28T00:05:34;101531.34;;;17.18;100.00
54308;BME280;40208;39.778;2.710;2023-04-28T00:08:19;101514.66;;;17.13;100.00
54308;BME280;40208;39.778;2.710;2023-04-28T00:11:10;101533.59;;;16.95;100.00
54308;BME280;40208;39.778;2.710;2023-04-28T00:13:55;101445.78;;;16.54;100.00
54308;BME280;40208;39.778;2.710;2023-04-28T00:16:39;101539.13;;;17.23;100.00
54308;BME280;40208;39.778;2.710;2023-04-28T00:19:24;101473.97;;;16.76;100.00
54308;BME280;40208;39.778;2.710;2023-04-28T00:22:09;101417.97;;;16.41;100.00
54308;BME280;40208;39.778;2.710;2023-04-28T00:24:54;101536.00;;;17.00;100.00
54308;BME280;40208;39.778;2.710;2023-04-28T00:27:39;101544.34;;;17.10;100.00
54308;BME280;40208;39.778;2.710;2023-04-28T00:30:24;101488.13;;;16.48;100.00
54308;BME280;40208;39.778;2.710;2023-04-28T00:33:09;101535.63;;;16.92;100.00
54308;BME280;40208;39.778;2.710;2023-04-28T00:36:00;101545.56;;;16.74;100.00
54308;BME280;40208;39.778;2.710;2023-04-28T00:38:44;101509.97;;;16.56;100.00
54308;BME280;40208;39.778;2.710;2023-04-28T00:41:29;101402.97;;;15.93;100.00
54308;BME280;40208;39.778;2.710;2023-04-28T00:44:14;101462.47;;;16.14;100.00
54308;BME280;40208;39.778;2.710;2023-04-28T00:47:00;101408.00;;;15.83;100.00
54308;BME280;40208;39.778;2.710;2023-04-28T00:49:45;101303.81;;;15.48;100.00
54308;BME280;40208;39.778;2.710;2023-04-28T00:52:33;101502.28;;;16.66;100.00
54308;BME280;40208;39.778;2.710;2023-04-28T00:55:18;101494.81;;;16.71;100.00
54308;BME280;40208;39.778;2.710;2023-04-28T00:58:05;101444.25;;;16.65;100.00
54308;BME280;40208;39.778;2.710;2023-04-28T01:00:50;101318.56;;;15.55;100.00
54308;BME280;40208;39.778;2.710;2023-04-28T01:03:37;101497.00;;;16.64;100.00
54308;BME280;40208;39.778;2.710;2023-04-28T01:06:23;101454.13;;;16.34;100.00
54308;BME280;40208;39.778;2.710;2023-04-28T01:09:08;101367.06;;;15.81;100.00
54308;BME280;40208;39.778;2.710;2023-04-28T01:11:53;101488.47;;;16.42;100.00
54308;BME280;40208;39.778;2.710;2023-04-28T01:14:39;101397.09;;;15.86;100.00
54308;BME280;40208;39.778;2.710;2023-04-28T01:17:23;101452.69;;;16.13;100.00
54308;BME280;40208;39.778;2.710;2023-04-28T01:20:09;101425.56;;;16.19;100.00
54308;BME280;40208;39.778;2.710;2023-04-28T01:22:53;101494.25;;;16.66;100.00
54308;BME280;40208;39.778;2.710;2023-04-28T01:25:38;101474.94;;;16.45;100.00
54308;BME280;40208;39.778;2.710;2023-04-28T01:28:23;101487.88;;;16.52;100.00
54308;BME280;40208;39.778;2.710;2023-04-28T01:31:08;101467.31;;;16.37;100.00
54308;BME280;40208;39.778;2.710;2023-04-28T01:33:53;101366.97;;;15.66;100.00
54308;BME280;40208;39.778;2.710;2023-04-28T01:36:37;101364.03;;;15.55;100.00
54308;BME280;40208;39.778;2.710;2023-04-28T01:39:22;101446.47;;;15.96;100.00
54308;BME280;40208;39.778;2.710;2023-04-28T01:42:07;101339.50;;;15.15;100.00
54308;BME280;40208;39.778;2.710;2023-04-28T01:44:53;101417.22;;;15.61;100.00
54308;BME280;40208;39.778;2.710;2023-04-28T01:47:38;101437.97;;;15.74;100.00
54308;BME280;40208;39.778;2.710;2023-04-28T01:50:23;101410.97;;;15.61;100.00
54308;BME280;40208;39.778;2.710;2023-04-28T01:53:08;101375.94;;;15.34;100.00
54308;BME280;40208;39.778;2.710;2023-04-28T01:55:53;101388.25;;;15.68;100.00
54308;BME280;40208;39.778;2.710;2023-04-28T01:58:38;101397.09;;;15.54;100.00
54308;BME280;40208;39.778;2.710;2023-04-28T02:01:23;101416.63;;;15.88;100.00
54308;BME280;40208;39.778;2.710;2023-04-28T02:04:07;101319.97;;;15.31;100.00
54308;BME280;40208;39.778;2.710;2023-04-28T02:06:52;101492.50;;;16.19;100.00
54308;BME280;40208;39.778;2.710;2023-04-28T02:09:37;101461.69;;;15.96;100.00
54308;BME280;40208;39.778;2.710;2023-04-28T02:12:22;101481.81;;;16.03;100.00
54308;BME280;40208;39.778;2.710;2023-04-28T02:15:07;101485.84;;;15.94;100.00
54308;BME280;40208;39.778;2.710;2023-04-28T02:17:52;101444.25;;;15.73;100.00
54308;BME280;40208;39.778;2.710;2023-04-28T02:20:37;101465.59;;;15.90;100.00
54308;BME280;40208;39.778;2.710;2023-04-28T02:23:22;101475.94;;;15.96;100.00
54308;BME280;40208;39.778;2.710;2023-04-28T02:26:07;101360.91;;;15.15;100.00
54308;BME280;40208;39.778;2.710;2023-04-28T02:28:51;101464.56;;;15.93;100.00
54308;BME280;40208;39.778;2.710;2023-04-28T02:31:36;101393.91;;;15.47;100.00
54308;BME280;40208;39.778;2.710;2023-04-28T02:34:21;101441.75;;;15.85;100.00
54308;BME280;40208;39.778;2.710;2023-04-28T02:37:06;101310.28;;;15.12;100.00
54308;BME280;40208;39.778;2.710;2023-04-28T02:39:51;101461.44;;;16.00;100.00
54308;BME280;40208;39.778;2.710;2023-04-28T02:42:36;101450.56;;;15.87;100.00
54308;BME280;40208;39.778;2.710;2023-04-28T02:45:21;101400.25;;;15.61;100.00
54308;BME280;40208;39.778;2.710;2023-04-28T02:48:06;101284.75;;;14.91;100.00
54308;BME280;40208;39.778;2.710;2023-04-28T02:50:50;101423.63;;;15.75;100.00
54308;BME280;40208;39.778;2.710;2023-04-28T02:53:36;101398.03;;;15.53;100.00
54308;BME280;40208;39.778;2.710;2023-04-28T02:56:22;101399.84;;;15.53;100.00
54308;BME280;40208;39.778;2.710;2023-04-28T02:59:07;101412.59;;;15.63;100.00
54308;BME280;40208;39.778;2.710;2023-04-28T03:01:51;101417.28;;;15.44;100.00
54308;BME280;40208;39.778;2.710;2023-04-28T03:04:36;101304.13;;;14.78;100.00
54308;BME280;40208;39.778;2.710;2023-04-28T03:07:21;101384.72;;;15.20;100.00
54308;BME280;40208;39.778;2.710;2023-04-28T03:10:06;101361.13;;;14.95;100.00
54308;BME280;40208;39.778;2.710;2023-04-28T03:12:51;101477.88;;;15.61;100.00
54308;BME280;40208;39.778;2.710;2023-04-28T03:15:36;101337.31;;;14.74;100.00
54308;BME280;40208;39.778;2.710;2023-04-28T03:18:21;101486.31;;;15.53;100.00
54308;BME280;40208;39.778;2.710;2023-04-28T03:21:06;101485.63;;;15.65;100.00
54308;BME280;40208;39.778;2.710;2023-04-28T03:23:50;101473.91;;;15.68;100.00
54308;BME280;40208;39.778;2.710;2023-04-28T03:26:35;101406.38;;;15.47;100.00
54308;BME280;40208;39.778;2.710;2023-04-28T03:29:20;101368.25;;;15.27;100.00
54308;BME280;40208;39.778;2.710;2023-04-28T03:32:07;101487.09;;;16.04;100.00
54308;BME280;40208;39.778;2.710;2023-04-28T03:34:53;101444.47;;;15.68;100.00
54308;BME280;40208;39.778;2.710;2023-04-28T03:37:38;101486.38;;;15.85;100.00
54308;BME280;40208;39.778;2.710;2023-04-28T03:40:23;101393.78;;;15.17;100.00
54308;BME280;40208;39.778;2.710;2023-04-28T03:43:07;101345.16;;;14.77;100.00
54308;BME280;40208;39.778;2.710;2023-04-28T03:45:52;101488.56;;;15.45;100.00
54308;BME280;40208;39.778;2.710;2023-04-28T03:48:38;101476.06;;;15.61;100.00
54308;BME280;40208;39.778;2.710;2023-04-28T03:51:23;101485.25;;;15.40;100.00
54308;BME280;40208;39.778;2.710;2023-04-28T03:54:08;101426.75;;;15.34;100.00
54308;BME280;40208;39.778;2.710;2023-04-28T03:56:52;101300.69;;;14.59;100.00
54308;BME280;40208;39.778;2.710;2023-04-28T03:59:37;101357.22;;;14.84;100.00
54308;BME280;40208;39.778;2.710;2023-04-28T04:02:22;101392.88;;;15.01;100.00
54308;BME280;40208;39.778;2.710;2023-04-28T04:05:07;101274.19;;;14.21;100.00
54308;BME280;40208;39.778;2.710;2023-04-28T04:07:52;101360.97;;;14.65;100.00
54308;BME280;40208;39.778;2.710;2023-04-28T04:10:36;101476.06;;;15.12;100.00
54308;BME280;40208;39.778;2.710;2023-04-28T04:13:21;101499.09;;;15.15;100.00
54308;BME280;40208;39.778;2.710;2023-04-28T04:16:06;101322.88;;;13.74;100.00
54308;BME280;40208;39.778;2.710;2023-04-28T04:18:51;101493.75;;;15.15;100.00
54308;BME280;40208;39.778;2.710;2023-04-28T04:21:35;101239.00;;;13.62;100.00
54308;BME280;40208;39.778;2.710;2023-04-28T04:24:20;101488.94;;;15.04;100.00
54308;BME280;40208;39.778;2.710;2023-04-28T04:27:05;101341.09;;;14.00;100.00
54308;BME280;40208;39.778;2.710;2023-04-28T04:29:50;101486.00;;;14.93;100.00
54308;BME280;40208;39.778;2.710;2023-04-28T04:32:35;101443.31;;;14.74;100.00
54308;BME280;40208;39.778;2.710;2023-04-28T04:35:20;101461.09;;;15.08;100.00
54308;BME280;40208;39.778;2.710;2023-04-28T04:38:05;101471.69;;;15.27;100.00
54308;BME280;40208;39.778;2.710;2023-04-28T04:40:50;101354.75;;;14.47;100.00
54308;BME280;40208;39.778;2.710;2023-04-28T04:43:35;101288.44;;;14.21;100.00
54308;BME280;40208;39.778;2.710;2023-04-28T04:46:22;101471.31;;;15.17;100.00
54308;BME280;40208;39.778;2.710;2023-04-28T04:49:07;101388.19;;;14.89;100.00
54308;BME280;40208;39.778;2.710;2023-04-28T04:51:52;101448.84;;;15.04;100.00
54308;BME280;40208;39.778;2.710;2023-04-28T04:54:37;101463.13;;;15.20;100.00
54308;BME280;40208;39.778;2.710;2023-04-28T04:57:22;101432.19;;;14.99;100.00
54308;BME280;40208;39.778;2.710;2023-04-28T05:00:07;101477.22;;;15.06;100.00
54308;BME280;40208;39.778;2.710;2023-04-28T05:02:53;101377.31;;;14.58;100.00
54308;BME280;40208;39.778;2.710;2023-04-28T05:05:39;101458.00;;;15.00;100.00
54308;BME280;40208;39.778;2.710;2023-04-28T05:08:24;101420.53;;;14.67;100.00
54308;BME280;40208;39.778;2.710;2023-04-28T05:11:16;101469.09;;;15.25;100.00
54308;BME280;40208;39.778;2.710;2023-04-28T05:14:04;101398.03;;;14.53;100.00
54308;BME280;40208;39.778;2.710;2023-04-28T05:16:52;101331.69;;;14.11;100.00
54308;BME280;40208;39.778;2.710;2023-04-28T05:19:38;101368.97;;;14.30;100.00
54308;BME280;40208;39.778;2.710;2023-04-28T05:22:24;101348.16;;;14.02;100.00
54308;BME280;40208;39.778;2.710;2023-04-28T05:25:10;101425.59;;;14.36;100.00
54308;BME280;40208;39.778;2.710;2023-04-28T05:27:55;101447.00;;;14.54;100.00
54308;BME280;40208;39.778;2.710;2023-04-28T05:30:40;101428.03;;;14.41;100.00
54308;BME280;40208;39.778;2.710;2023-04-28T05:33:25;101424.94;;;14.14;100.00
54308;BME280;40208;39.778;2.710;2023-04-28T05:36:11;101407.81;;;14.00;100.00
54308;BME280;40208;39.778;2.710;2023-04-28T05:38:57;101494.59;;;14.46;100.00
54308;BME280;40208;39.778;2.710;2023-04-28T05:41:42;101480.50;;;14.42;100.00
54308;BME280;40208;39.778;2.710;2023-04-28T05:44:27;101502.88;;;14.58;100.00
54308;BME280;40208;39.778;2.710;2023-04-28T05:47:12;101429.66;;;14.09;100.00
54308;BME280;40208;39.778;2.710;2023-04-28T05:49:57;101483.75;;;14.49;100.00
54308;BME280;40208;39.778;2.710;2023-04-28T05:52:42;101453.91;;;14.40;100.00
54308;BME280;40208;39.778;2.710;2023-04-28T05:55:27;101458.13;;;14.45;100.00
54308;BME280;40208;39.778;2.710;2023-04-28T05:58:13;101458.28;;;14.41;100.00
54308;BME280;40208;39.778;2.710;2023-04-28T06:00:59;101483.09;;;14.62;100.00
54308;BME280;40208;39.778;2.710;2023-04-28T06:03:45;101365.06;;;13.83;100.00
54308;BME280;40208;39.778;2.710;2023-04-28T06:06:30;101427.72;;;14.30;100.00
54308;BME280;40208;39.778;2.710;2023-04-28T06:09:16;101512.63;;;14.77;100.00
54308;BME280;40208;39.778;2.710;2023-04-28T06:12:02;101448.94;;;14.50;100.00
54308;BME280;40208;39.778;2.710;2023-04-28T06:14:47;101514.59;;;14.91;100.00
54308;BME280;40208;39.778;2.710;2023-04-28T06:17:33;101260.56;;;13.57;100.00
54308;BME280;40208;39.778;2.710;2023-04-28T06:20:18;101516.59;;;15.20;100.00
54308;BME280;40208;39.778;2.710;2023-04-28T06:23:02;101538.31;;;15.32;100.00
54308;BME280;40208;39.778;2.710;2023-04-28T06:25:47;101525.53;;;15.37;100.00
54308;BME280;40208;39.778;2.710;2023-04-28T06:28:32;101418.53;;;14.88;100.00
54308;BME280;40208;39.778;2.710;2023-04-28T06:31:17;101530.44;;;15.62;100.00
54308;BME280;40208;39.778;2.710;2023-04-28T06:34:02;101455.56;;;15.29;100.00
54308;BME280;40208;39.778;2.710;2023-04-28T06:36:47;101499.28;;;15.61;100.00
54308;BME280;40208;39.778;2.710;2023-04-28T06:39:33;101420.00;;;15.26;100.00
54308;BME280;40208;39.778;2.710;2023-04-28T06:42:19;101513.06;;;15.86;100.00
54308;BME280;40208;39.778;2.710;2023-04-28T06:45:05;101517.84;;;15.97;100.00
54308;BME280;40208;39.778;2.710;2023-04-28T06:47:50;101443.25;;;15.58;100.00
54308;BME280;40208;39.778;2.710;2023-04-28T06:50:36;101498.13;;;15.98;100.00
54308;BME280;40208;39.778;2.710;2023-04-28T06:53:21;101418.66;;;15.51;100.00
54308;BME280;40208;39.778;2.710;2023-04-28T06:56:06;101461.78;;;15.78;100.00
54308;BME280;40208;39.778;2.710;2023-04-28T06:58:54;101512.56;;;16.11;100.00
54308;BME280;40208;39.778;2.710;2023-04-28T07:01:42;101489.50;;;16.09;100.00
54308;BME280;40208;39.778;2.710;2023-04-28T07:04:27;101403.47;;;15.67;100.00
54308;BME280;40208;39.778;2.710;2023-04-28T07:07:12;101491.88;;;16.29;100.00
54308;BME280;40208;39.778;2.710;2023-04-28T07:09:59;101503.34;;;16.47;100.00
54308;BME280;40208;39.778;2.710;2023-04-28T07:12:45;101520.06;;;16.67;100.00
54308;BME280;40208;39.778;2.710;2023-04-28T07:15:30;101491.84;;;16.61;100.00
54308;BME280;40208;39.778;2.710;2023-04-28T07:18:18;101519.97;;;16.84;100.00
54308;BME280;40208;39.778;2.710;2023-04-28T07:21:04;101511.25;;;16.81;100.00
54308;BME280;40208;39.778;2.710;2023-04-28T07:23:49;101506.47;;;16.86;100.00
54308;BME280;40208;39.778;2.710;2023-04-28T07:26:37;101528.47;;;17.07;100.00
54308;BME280;40208;39.778;2.710;2023-04-28T07:29:23;101529.69;;;17.15;100.00
54308;BME280;40208;39.778;2.710;2023-04-28T07:32:09;101539.88;;;17.25;100.00
54308;BME280;40208;39.778;2.710;2023-04-28T07:34:55;101441.63;;;16.79;100.00
54308;BME280;40208;39.778;2.710;2023-04-28T07:37:41;101267.34;;;15.77;100.00
54308;BME280;40208;39.778;2.710;2023-04-28T07:40:27;101395.78;;;16.53;100.00
54308;BME280;40208;39.778;2.710;2023-04-28T07:43:13;101500.09;;;17.17;100.00
54308;BME280;40208;39.778;2.710;2023-04-28T07:45:58;101488.03;;;17.24;100.00
54308;BME280;40208;39.778;2.710;2023-04-28T07:48:45;101569.25;;;17.71;100.00
54308;BME280;40208;39.778;2.710;2023-04-28T07:51:31;101573.34;;;17.76;100.00
54308;BME280;40208;39.778;2.710;2023-04-28T07:54:16;101573.59;;;17.88;100.00
54308;BME280;40208;39.778;2.710;2023-04-28T07:57:03;101494.59;;;17.49;100.00
54308;BME280;40208;39.778;2.710;2023-04-28T07:59:50;101451.25;;;17.26;100.00
54308;BME280;40208;39.778;2.710;2023-04-28T08:02:35;101572.00;;;18.12;100.00
54308;BME280;40208;39.778;2.710;2023-04-28T08:05:20;101583.78;;;18.24;100.00
54308;BME280;40208;39.778;2.710;2023-04-28T08:08:05;101577.53;;;18.38;100.00
54308;BME280;40208;39.778;2.710;2023-04-28T08:10:50;101489.63;;;17.98;100.00
54308;BME280;40208;39.778;2.710;2023-04-28T08:13:35;101556.84;;;18.53;100.00
54308;BME280;40208;39.778;2.710;2023-04-28T08:16:20;101469.59;;;18.04;100.00
54308;BME280;40208;39.778;2.710;2023-04-28T08:19:06;101546.44;;;18.61;100.00
54308;BME280;40208;39.778;2.710;2023-04-28T08:21:51;101521.34;;;18.48;100.00
54308;BME280;40208;39.778;2.710;2023-04-28T08:24:36;101504.56;;;18.44;100.00
54308;BME280;40208;39.778;2.710;2023-04-28T08:27:20;101556.19;;;18.76;100.00
54308;BME280;40208;39.778;2.710;2023-04-28T08:30:08;101583.53;;;19.10;100.00
54308;BME280;40208;39.778;2.710;2023-04-28T08:32:57;101580.06;;;19.21;100.00
54308;BME280;40208;39.778;2.710;2023-04-28T08:35:41;101554.25;;;19.18;100.00
54308;BME280;40208;39.778;2.710;2023-04-28T08:38:26;101574.28;;;19.40;100.00
54308;BME280;40208;39.778;2.710;2023-04-28T08:41:14;101573.19;;;19.42;100.00
54308;BME280;40208;39.778;2.710;2023-04-28T08:43:59;101567.19;;;19.39;100.00
54308;BME280;40208;39.778;2.710;2023-04-28T08:46:45;101588.72;;;19.52;100.00
54308;BME280;40208;39.778;2.710;2023-04-28T08:49:33;101534.00;;;19.25;100.00
54308;BME280;40208;39.778;2.710;2023-04-28T08:52:22;101574.06;;;19.56;100.00
54308;BME280;40208;39.778;2.710;2023-04-28T08:55:10;101407.59;;;18.60;100.00
54308;BME280;40208;39.778;2.710;2023-04-28T08:57:57;101581.38;;;19.66;100.00
54308;BME280;40208;39.778;2.710;2023-04-28T09:00:43;101605.31;;;19.71;100.00
54308;BME280;40208;39.778;2.710;2023-04-28T09:03:27;101594.78;;;19.68;100.00
54308;BME280;40208;39.778;2.710;2023-04-28T09:06:12;101583.13;;;19.80;100.00
54308;BME280;40208;39.778;2.710;2023-04-28T09:09:26;101530.91;;;19.70;100.00
54308;BME280;40208;39.778;2.710;2023-04-28T09:12:14;101579.22;;;20.10;100.00
54308;BME280;40208;39.778;2.710;2023-04-28T09:14:59;101574.75;;;20.22;100.00
54308;BME280;40208;39.778;2.710;2023-04-28T09:17:54;101580.00;;;20.36;100.00
54308;BME280;40208;39.778;2.710;2023-04-28T09:20:39;101508.16;;;20.11;100.00
54308;BME280;40208;39.778;2.710;2023-04-28T09:23:23;101417.94;;;19.67;100.00
54308;BME280;40208;39.778;2.710;2023-04-28T09:26:08;101513.16;;;20.28;100.00
54308;BME280;40208;39.778;2.710;2023-04-28T09:29:10;101488.47;;;19.98;100.00
54308;BME280;40208;39.778;2.710;2023-04-28T09:32:16;101597.41;;;20.80;100.00
54308;BME280;40208;39.778;2.710;2023-04-28T09:35:01;101534.09;;;20.49;100.00
54308;BME280;40208;39.778;2.710;2023-04-28T09:37:57;101604.38;;;20.95;100.00
54308;BME280;40208;39.778;2.710;2023-04-28T09:40:53;101552.06;;;20.61;100.00
54308;BME280;40208;39.778;2.710;2023-04-28T09:43:38;101583.06;;;20.80;100.00
54308;BME280;40208;39.778;2.710;2023-04-28T09:46:28;101575.88;;;20.91;100.00
54308;BME280;40208;39.778;2.710;2023-04-28T09:49:13;101548.25;;;20.77;100.00
54308;BME280;40208;39.778;2.710;2023-04-28T09:52:12;101456.38;;;20.19;100.00
54308;BME280;40208;39.778;2.710;2023-04-28T09:54:57;101562.97;;;20.84;100.00
54308;BME280;40208;39.778;2.710;2023-04-28T09:57:43;101557.59;;;20.95;100.00
54308;BME280;40208;39.778;2.710;2023-04-28T10:00:32;101456.63;;;20.51;100.00
54308;BME280;40208;39.778;2.710;2023-04-28T10:03:19;101544.28;;;21.05;100.00
54308;BME280;40208;39.778;2.710;2023-04-28T10:06:04;101448.31;;;20.54;100.00
54308;BME280;40208;39.778;2.710;2023-04-28T10:08:50;101419.09;;;20.37;100.00
54308;BME280;40208;39.778;2.710;2023-04-28T10:11:35;101550.31;;;21.20;100.00
54308;BME280;40208;39.778;2.710;2023-04-28T10:14:23;101481.19;;;20.94;100.00
54308;BME280;40208;39.778;2.710;2023-04-28T10:17:09;101362.88;;;20.54;100.00
54308;BME280;40208;39.778;2.710;2023-04-28T10:19:55;101485.16;;;21.35;100.00
54308;BME280;40208;39.778;2.710;2023-04-28T10:25:47;101549.16;;;21.91;100.00
54308;BME280;40208;39.778;2.710;2023-04-28T10:28:33;101547.44;;;22.01;100.00
54308;BME280;40208;39.778;2.710;2023-04-28T10:31:19;101543.00;;;22.12;100.00
54308;BME280;40208;39.778;2.710;2023-04-28T10:34:21;101538.06;;;22.17;100.00
54308;BME280;40208;39.778;2.710;2023-04-28T10:37:06;101582.56;;;22.35;100.00
54308;BME280;40208;39.778;2.710;2023-04-28T10:43:13;101599.88;;;22.44;100.00
54308;BME280;40208;39.778;2.710;2023-04-28T10:46:16;101555.16;;;22.29;100.00
54308;BME280;40208;39.778;2.710;2023-04-28T10:49:07;101596.19;;;22.45;100.00
54308;BME280;40208;39.778;2.710;2023-04-28T10:51:52;101385.75;;;21.18;100.00
54308;BME280;40208;39.778;2.710;2023-04-28T10:54:37;101372.13;;;20.97;100.00
54308;BME280;40208;39.778;2.710;2023-04-28T10:57:21;101470.09;;;21.67;100.00
54308;BME280;40208;39.778;2.710;2023-04-28T11:00:28;101581.84;;;22.33;100.00
54308;BME280;40208;39.778;2.710;2023-04-28T11:04:04;101444.06;;;21.54;100.00
54308;BME280;40208;39.778;2.710;2023-04-28T11:07:11;101525.19;;;22.09;100.00
54308;BME280;40208;39.778;2.710;2023-04-28T11:09:59;101495.00;;;21.93;100.00
54308;BME280;40208;39.778;2.710;2023-04-28T11:16:21;101555.16;;;22.29;99.58
54308;BME280;40208;39.778;2.710;2023-04-28T11:19:09;101542.78;;;22.26;100.00
54308;BME280;40208;39.778;2.710;2023-04-28T11:22:03;101387.50;;;21.42;100.00
54308;BME280;40208;39.778;2.710;2023-04-28T11:24:54;101526.41;;;22.28;100.00
54308;BME280;40208;39.778;2.710;2023-04-28T11:27:41;101352.63;;;21.27;100.00
54308;BME280;40208;39.778;2.710;2023-04-28T11:30:27;101485.97;;;22.15;100.00
54308;BME280;40208;39.778;2.710;2023-04-28T11:33:14;101502.94;;;22.28;100.00
54308;BME280;40208;39.778;2.710;2023-04-28T11:35:59;101447.97;;;21.84;100.00
54308;BME280;40208;39.778;2.710;2023-04-28T11:38:44;101471.59;;;22.14;100.00
54308;BME280;40208;39.778;2.710;2023-04-28T11:41:30;101493.81;;;22.29;100.00
54308;BME280;40208;39.778;2.710;2023-04-28T11:44:18;101473.66;;;22.33;100.00
54308;BME280;40208;39.778;2.710;2023-04-28T11:47:05;101491.63;;;22.55;100.00
54308;BME280;40208;39.778;2.710;2023-04-28T11:49:50;101443.28;;;22.30;100.00
54308;BME280;40208;39.778;2.710;2023-04-28T11:52:35;101443.75;;;22.35;100.00
54308;BME280;40208;39.778;2.710;2023-04-28T11:55:20;101435.34;;;22.28;100.00
54308;BME280;40208;39.778;2.710;2023-04-28T11:58:20;101369.75;;;22.03;100.00
54308;BME280;40208;39.778;2.710;2023-04-28T12:01:11;101458.91;;;22.58;100.00
54308;BME280;40208;39.778;2.710;2023-04-28T12:03:57;101443.06;;;22.54;100.00
54308;BME280;40208;39.778;2.710;2023-04-28T12:06:42;101478.53;;;22.72;100.00
54308;BME280;40208;39.778;2.710;2023-04-28T12:09:29;101375.38;;;22.12;100.00
54308;BME280;40208;39.778;2.710;2023-04-28T12:12:16;101309.28;;;21.84;100.00
54308;BME280;40208;39.778;2.710;2023-04-28T12:15:11;101377.72;;;22.37;100.00
54308;BME280;40208;39.778;2.710;2023-04-28T12:18:08;101462.53;;;23.11;100.00
54308;BME280;40208;39.778;2.710;2023-04-28T12:20:53;101420.19;;;23.00;100.00
54308;BME280;40208;39.778;2.710;2023-04-28T12:23:40;101057.34;;;20.86;100.00
54308;BME280;40208;39.778;2.710;2023-04-28T12:26:27;101452.44;;;23.43;100.00
54308;BME280;40208;39.778;2.710;2023-04-28T12:29:37;101454.63;;;23.49;100.00
54308;BME280;40208;39.778;2.710;2023-04-28T12:32:39;101436.88;;;23.36;100.00
54308;BME280;40208;39.778;2.710;2023-04-28T12:35:26;101445.44;;;23.41;100.00
54308;BME280;40208;39.778;2.710;2023-04-28T12:38:11;101455.00;;;23.35;100.00
54308;BME280;40208;39.778;2.710;2023-04-28T12:41:03;101322.38;;;22.62;100.00
54308;BME280;40208;39.778;2.710;2023-04-28T12:43:51;101417.03;;;23.25;100.00
54308;BME280;40208;39.778;2.710;2023-04-28T12:46:36;101413.94;;;23.40;100.00
54308;BME280;40208;39.778;2.710;2023-04-28T12:49:21;101446.63;;;23.58;100.00
54308;BME280;40208;39.778;2.710;2023-04-28T12:52:06;101340.47;;;22.93;100.00
54308;BME280;40208;39.778;2.710;2023-04-28T12:54:50;101383.97;;;23.32;100.00
54308;BME280;40208;39.778;2.710;2023-04-28T12:57:36;101129.53;;;21.89;100.00
54308;BME280;40208;39.778;2.710;2023-04-28T13:00:24;101369.03;;;23.37;100.00
54308;BME280;40208;39.778;2.710;2023-04-28T13:03:09;101456.03;;;23.94;100.00
54308;BME280;40208;39.778;2.710;2023-04-28T13:05:54;101432.94;;;23.90;100.00
54308;BME280;40208;39.778;2.710;2023-04-28T13:08:39;101383.91;;;23.62;100.00
54308;BME280;40208;39.778;2.710;2023-04-28T13:11:24;101435.78;;;23.88;100.00
54308;BME280;40208;39.778;2.710;2023-04-28T13:14:10;101360.03;;;23.37;99.59
54308;BME280;40208;39.778;2.710;2023-04-28T13:16:56;101419.91;;;23.74;98.87
54308;BME280;40208;39.778;2.710;2023-04-28T13:19:41;101311.50;;;23.14;96.49
54308;BME280;40208;39.778;2.710;2023-04-28T13:22:27;101345.50;;;23.38;97.49
54308;BME280;40208;39.778;2.710;2023-04-28T13:25:11;101431.78;;;23.92;93.94
54308;BME280;40208;39.778;2.710;2023-04-28T13:27:56;101422.63;;;23.84;96.65
54308;BME280;40208;39.778;2.710;2023-04-28T13:30:41;101360.03;;;23.37;97.32
54308;BME280;40208;39.778;2.710;2023-04-28T13:33:26;101422.63;;;23.74;97.84
54308;BME280;40208;39.778;2.710;2023-04-28T13:36:14;101434.56;;;23.71;98.52
54308;BME280;40208;39.778;2.710;2023-04-28T13:38:59;101376.03;;;23.40;98.56
54308;BME280;40208;39.778;2.710;2023-04-28T13:41:44;101431.41;;;23.66;99.70
54308;BME280;40208;39.778;2.710;2023-04-28T13:44:29;101415.34;;;23.75;100.00
54308;BME280;40208;39.778;2.710;2023-04-28T13:47:14;101401.31;;;23.69;100.00
54308;BME280;40208;39.778;2.710;2023-04-28T13:50:03;101384.31;;;23.58;100.00
54308;BME280;40208;39.778;2.710;2023-04-28T13:52:48;101363.50;;;23.58;100.00
54308;BME280;40208;39.778;2.710;2023-04-28T13:55:33;101414.06;;;23.79;100.00
54308;BME280;40208;39.778;2.710;2023-04-28T13:58:18;101346.88;;;23.32;97.42
54308;BME280;40208;39.778;2.710;2023-04-28T14:01:03;101400.81;;;23.76;100.00
54308;BME280;40208;39.778;2.710;2023-04-28T14:03:47;101414.19;;;23.77;100.00
54308;BME280;40208;39.778;2.710;2023-04-28T14:06:32;101406.75;;;23.69;100.00
54308;BME280;40208;39.778;2.710;2023-04-28T14:09:18;101358.06;;;23.48;99.50
54308;BME280;40208;39.778;2.710;2023-04-28T14:12:04;101386.47;;;23.54;100.00
54308;BME280;40208;39.778;2.710;2023-04-28T14:14:49;101364.16;;;23.41;100.00
54308;BME280;40208;39.778;2.710;2023-04-28T14:17:34;101342.16;;;23.24;100.00
54308;BME280;40208;39.778;2.710;2023-04-28T14:20:19;101354.28;;;23.30;100.00
54308;BME280;40208;39.778;2.710;2023-04-28T14:23:04;101293.91;;;22.99;100.00
54308;BME280;40208;39.778;2.710;2023-04-28T14:25:51;101327.66;;;23.25;100.00
54308;BME280;40208;39.778;2.710;2023-04-28T14:28:39;101171.00;;;22.30;100.00